Data for 09/27/2008

Time Sea-Level Adjusted Pressure Absolute Pressure Temperature Relative Humidity Dew Point   
(mb) (inHg) (mb) (inHg) (C) (F) (%) (C) (F)
00:05 1022 30.18 851 25.13 13.5 56.3 44 1.6 35
00:10 1022 30.18 851 25.13 13.7 56.6 44 1.8 35.2
00:15 1022 30.18 851 25.13 13.7 56.6 44 1.8 35.2
00:20 1022 30.18 851 25.13 13.7 56.6 44 1.8 35.2
00:25 1022 30.18 851 25.13 13.7 56.7 44 1.8 35.3
00:30 1022 30.18 851 25.13 13.5 56.2 44 1.6 34.9
00:35 1022 30.18 851 25.13 13 55.5 45 1.4 34.5
00:40 1022 30.18 851 25.13 12.8 55 45 1.3 34.4
00:45 1022 30.18 851 25.13 12.7 54.9 45 1.3 34.3
00:50 1022 30.18 851 25.13 12.6 54.7 46 1.3 34.3
00:55 1022 30.18 851 25.13 12.6 54.6 47 1.6 34.9
01:00 1022 30.18 851 25.13 12.6 54.6 47 1.5 34.7
01:05 1022 30.18 851 25.13 12.5 54.6 46 1.3 34.4
01:10 1022 30.18 851 25.13 12.5 54.4 46 1.3 34.4
01:15 1022 30.18 851 25.13 12.4 54.3 47 1.3 34.4
01:20 1022 30.18 851 25.13 12.5 54.5 47 1.4 34.6
01:25 1022 30.18 851 25.13 12.4 54.4 47 1.4 34.5
01:30 1022 30.18 851 25.13 12.6 54.6 46 1.4 34.5
01:35 1022 30.18 851 25.13 12.5 54.5 47 1.6 34.9
01:40 1022 30.18 851 25.13 12.5 54.5 47 1.6 34.9
01:45 1022 30.18 851 25.13 12.5 54.4 48 1.7 35.1
01:50 1022 30.18 851 25.13 12.5 54.4 48 1.7 35.1
01:55 1022 30.18 851 25.13 12.4 54.4 47 1.6 34.8
02:00 1022 30.18 851 25.13 12.4 54.3 47 1.5 34.8
02:05 1022 30.18 851 25.13 12.3 54.2 48 1.6 34.8
02:10 1022 30.18 851 25.13 12.3 54.1 48 1.7 35
02:15 1022 30.18 851 25.13 12.1 53.8 48 1.5 34.7
02:20 1022 30.18 851 25.13 12.1 53.7 48 1.5 34.8
02:25 1022 30.18 851 25.13 12 53.5 48 1.3 34.4
02:30 1022 30.18 851 25.13 12 53.5 47 1.2 34.1
02:35 1022 30.18 851 25.13 11.9 53.5 47 1 33.8
02:40 1022 30.18 851 25.13 11.9 53.3 46 0.7 33.3
02:45 1022 30.18 851 25.13 11.9 53.5 46 0.7 33.2
02:50 1022 30.18 851 25.13 11.8 53.3 47 0.8 33.5
02:55 1022 30.18 851 25.13 11.9 53.4 47 0.9 33.6
03:00 1022 30.18 851 25.13 11.8 53.2 48 1.1 34
03:05 1022 30.18 851 25.13 11.5 52.7 49 1.3 34.3
03:10 1022 30.18 851 25.13 11.3 52.4 49 1 33.9
03:15 1022 30.18 851 25.13 11.2 52.1 49 0.8 33.4
03:20 1022 30.18 851 25.13 10.9 51.5 49 0.7 33.3
03:25 1022 30.18 851 25.13 10.8 51.4 50 0.7 33.3
03:30 1022 30.18 851 25.13 10.6 51 51 0.9 33.6
03:35 1022 30.18 851 25.13 10.4 50.6 48 -0.2 31.7
03:40 1022 30.18 851 25.13 10.5 50.8 47 -0.4 31.2
03:45 1022 30.18 851 25.13 10.6 51 46 -0.6 30.9
03:50 1021 30.15 851 25.13 10.5 51 45 -0.8 30.5
03:55 1021 30.15 851 25.13 10.5 51 45 -1 30.2
04:00 1021 30.15 851 25.13 10.6 51.1 44 -1.1 29.9
04:05 1021 30.15 851 25.13 10.7 51.2 43 -1.4 29.5
04:10 1021 30.15 850 25.1 10.7 51.3 43 -1.4 29.4
04:15 1021 30.15 850 25.1 10.7 51.2 42 -1.7 29
04:20 1021 30.15 850 25.1 10.7 51.3 41 -1.8 28.8
04:25 1021 30.15 850 25.1 10.7 51.2 42 -1.7 28.9
04:30 1021 30.15 850 25.1 10.5 51 42 -1.8 28.8
04:35 1021 30.15 850 25.1 10.3 50.5 42 -2.1 28.3
04:40 1021 30.15 851 25.13 10.5 50.8 40 -2.6 27.4
04:45 1021 30.15 851 25.13 10.8 51.4 39 -2.5 27.4
04:50 1021 30.15 851 25.13 10.8 51.4 40 -2.4 27.8
04:55 1021 30.15 851 25.13 10.6 51.2 40 -2.4 27.7
05:00 1021 30.15 851 25.13 10.5 50.9 41 -2.3 27.8
05:05 1021 30.15 851 25.13 10.5 50.8 40 -2.6 27.3
05:10 1021 30.15 851 25.13 10.3 50.6 39 -2.9 26.8
05:15 1021 30.15 851 25.13 10.1 50.1 38 -3.4 25.8
05:20 1021 30.15 851 25.13 9.6 49.2 40 -3.4 26
05:25 1021 30.15 851 25.13 9.2 48.5 41 -3.2 26.2
05:30 1021 30.15 851 25.13 9.6 49.3 38 -4.1 24.6
05:35 1021 30.15 851 25.13 10.1 50.1 37 -4.1 24.6
05:40 1021 30.15 851 25.13 9.7 49.5 42 -2.5 27.4
05:45 1021 30.15 851 25.13 9 48.3 42 -3.3 26.1
05:50 1021 30.15 851 25.13 9 48.1 42 -3.2 26.3
05:55 1021 30.15 851 25.13 9 48.1 44 -2.5 27.5
06:00 1021 30.15 851 25.13 9 48.2 46 -1.9 28.5
06:05 1021 30.15 851 25.13 8.8 47.8 43 -3 26.5
06:10 1021 30.15 851 25.13 8.9 48.1 41 -3.6 25.6
06:15 1021 30.15 851 25.13 9.1 48.4 41 -3.4 25.9
06:20 1021 30.15 851 25.13 9.1 48.4 42 -3.1 26.4
06:25 1022 30.18 851 25.13 8.8 47.9 42 -3.3 26
06:30 1022 30.18 851 25.13 8.7 47.7 42 -3.4 25.9
06:35 1022 30.18 851 25.13 8.5 47.3 42 -3.8 25.2
06:40 1022 30.18 851 25.13 8.4 47.2 42 -3.8 25.2
06:45 1022 30.18 851 25.13 8.3 47 41 -4.1 24.5
06:50 1022 30.18 851 25.13 8.3 47 40 -4.3 24.2
06:55 1022 30.18 851 25.13 8.2 46.8 46 -2.6 27.4
07:00 1022 30.18 851 25.13 7.9 46.1 47 -2.9 26.8
07:05 1022 30.18 851 25.13 7.3 45.2 47 -3.3 26
07:10 1022 30.18 851 25.13 7.3 45.2 46 -3.5 25.7
07:15 1022 30.18 851 25.13 7 44.6 50 -2.7 27.2
07:20 1022 30.18 851 25.13 6.5 43.6 51 -2.9 26.7
07:25 1022 30.18 851 25.13 6.3 43.3 52 -2.8 26.9
07:30 1022 30.18 851 25.13 6.1 43 51 -3.2 26.2
07:35 1022 30.18 851 25.13 6.1 43.1 51 -3.3 26.1
07:40 1022 30.18 851 25.13 6.3 43.3 50 -3.3 26.1
07:45 1022 30.18 851 25.13 6.4 43.5 49 -3.6 25.6
07:50 1022 30.18 851 25.13 6.8 44.2 46 -3.9 25
07:55 1022 30.18 851 25.13 7.3 45.1 45 -3.8 25.2
08:00 1022 30.18 851 25.13 7.3 45.2 47 -3.3 26
08:05 1022 30.18 851 25.13 7.2 45 48 -3.1 26.3
08:10 1022 30.18 851 25.13 7.2 45 47 -3.4 25.9
08:15 1022 30.18 851 25.13 7.5 45.6 46 -3.4 25.9
08:20 1022 30.18 851 25.13 7.7 45.9 46 -3.2 26.2
08:25 1022 30.18 851 25.13 7.9 46.3 48 -2.5 27.5
08:30 1022 30.18 851 25.13 8 46.3 49 -2.1 28.1
08:35 1022 30.18 852 25.16 7.9 46.3 51 -1.6 29.1
08:40 1022 30.18 852 25.16 8.1 46.5 52 -1.2 29.8
08:45 1022 30.18 852 25.16 7.5 45.5 51 -2 28.4
08:50 1022 30.18 851 25.13 7.4 45.3 51 -2 28.4
08:55 1022 30.18 851 25.13 7.6 45.7 52 -1.6 29.1
09:00 1022 30.18 851 25.13 7.9 46.2 52 -1.3 29.7
09:05 1022 30.18 851 25.13 8.3 46.9 51 -1.2 29.8
09:10 1022 30.18 851 25.13 8.9 48 49 -1.1 30
09:15 1022 30.18 851 25.13 9.5 49.1 48 -0.9 30.4
09:20 1022 30.18 851 25.13 10.2 50.3 47 -0.6 30.9
09:25 1022 30.18 851 25.13 11.1 52 42 -1.4 29.5
09:30 1022 30.18 851 25.13 11.7 53.1 41 -1.1 30.1
09:35 1022 30.18 851 25.13 11.8 53.3 41 -0.9 30.3
09:40 1022 30.18 851 25.13 11.7 53 41 -1.2 29.9
09:45 1022 30.18 851 25.13 11.9 53.3 42 -0.6 30.9
09:50 1022 30.18 851 25.13 12.3 54.1 41 -0.4 31.3
09:55 1022 30.18 852 25.16 12.8 55 41 0 32
10:00 1022 30.18 852 25.16 13.5 56.4 40 0.2 32.3
10:05 1022 30.18 852 25.16 14.4 57.8 38 0.5 32.9
10:10 1022 30.18 852 25.16 14.5 58.2 36 -0.2 31.6
10:15 1022 30.18 852 25.16 15.1 59.1 37 0.4 32.8
10:20 1023 30.21 852 25.16 14.9 58.8 37 0.3 32.5
10:25 1023 30.21 852 25.16 15.3 59.6 33 -0.7 30.7
10:30 1023 30.21 852 25.16 14.9 58.8 34 -0.8 30.5
10:35 1023 30.21 852 25.16 14.8 58.6 32 -1.5 29.3
10:40 1023 30.21 852 25.16 15.8 60.4 30 -1.8 28.7
10:45 1023 30.21 852 25.16 15.6 60.1 30 -1.8 28.8
10:50 1023 30.21 852 25.16 15.8 60.4 28 -2.5 27.5
10:55 1023 30.21 852 25.16 16.5 61.8 28 -1.7 28.9
11:00 1023 30.21 852 25.16 17.1 62.7 26 -2.3 27.8
11:05 1023 30.21 852 25.16 17.2 62.9 27 -2 28.3
11:10 1023 30.21 852 25.16 16.7 62 28 -1.9 28.5
11:15 1023 30.21 852 25.16 16.2 61.1 27 -3 26.7
11:20 1023 30.21 852 25.16 17.2 62.9 26 -2.3 27.9
11:25 1023 30.21 852 25.16 17.4 63.3 25 -2.9 26.8
11:30 1023 30.21 852 25.16 17.5 63.5 23 -4 24.9
11:35 1022 30.18 852 25.16 17.8 64.1 23 -3.8 25.2
11:40 1022 30.18 852 25.16 18.2 64.8 22 -3.7 25.3
11:45 1022 30.18 852 25.16 18.6 65.4 22 -3.4 25.9
11:50 1022 30.18 852 25.16 18.6 65.5 21 -3.9 25.1
11:55 1022 30.18 852 25.16 18.3 64.9 22 -3.7 25.4
12:00 1022 30.18 852 25.16 17.9 64.2 21 -4.7 23.5
12:05 1022 30.18 851 25.13 18.2 64.7 21 -4.5 23.8
12:10 1022 30.18 851 25.13 18 64.5 22 -4.1 24.7
12:15 1022 30.18 851 25.13 17.6 63.6 23 -3.9 25
12:20 1022 30.18 851 25.13 17.8 64 25 -2.7 27.2
12:25 1022 30.18 851 25.13 18 64.4 26 -1.8 28.8
12:30 1022 30.18 851 25.13 18.6 65.5 23 -2.9 26.7
12:35 1022 30.18 851 25.13 19.2 66.5 23 -2.4 27.7
12:40 1022 30.18 851 25.13 19.6 67.3 22 -2.6 27.3
12:45 1022 30.18 851 25.13 20 68 23 -1.9 28.7
12:50 1022 30.18 851 25.13 19.9 67.8 20 -3.5 25.8
12:55 1022 30.18 851 25.13 19.8 67.6 19 -4.2 24.5
13:00 1022 30.18 851 25.13 19.3 66.8 19 -4.5 23.9
13:05 1022 30.18 851 25.13 19.7 67.4 21 -3.4 25.9
13:10 1022 30.18 851 25.13 20.2 68.4 23 -1.3 29.7
13:15 1022 30.18 851 25.13 20.4 68.8 18 -4.5 23.9
13:20 1022 30.18 851 25.13 20.6 69.1 19 -3.8 25.2
13:25 1022 30.18 851 25.13 20.3 68.6 20 -3 26.7
13:30 1022 30.18 851 25.13 20.7 69.3 22 -1.8 28.7
13:35 1022 30.18 851 25.13 20.5 68.9 18 -4.3 24.2
13:40 1021 30.15 851 25.13 21.3 70.3 15 -5.9 21.3
13:45 1021 30.15 851 25.13 22.1 71.8 15 -5.9 21.4
13:50 1021 30.15 851 25.13 22 71.6 16 -5 22.9
13:55 1021 30.15 850 25.1 22 71.6 17 -4.1 24.6
14:00 1021 30.15 850 25.1 22.8 73.1 15 -5.3 22.4
14:05 1021 30.15 850 25.1 23.1 73.6 15 -5 23.1
14:10 1021 30.15 850 25.1 23.7 74.7 14 -5 23
14:15 1021 30.15 850 25.1 23.3 74 15 -4.6 23.7
14:20 1021 30.15 850 25.1 23.1 73.6 14 -5.9 21.5
14:25 1021 30.15 850 25.1 23.7 74.7 14 -5 23
14:30 1021 30.15 850 25.1 22.9 73.2 15 -5.3 22.4
14:35 1021 30.15 850 25.1 23.3 73.9 15 -4.5 24
14:40 1021 30.15 850 25.1 23.6 74.5 15 -4.6 23.8
14:45 1021 30.15 850 25.1 23.6 74.5 14 -5.4 22.3
14:50 1020 30.12 850 25.1 23.3 74 13 -6.3 20.6
14:55 1020 30.12 850 25.1 22.9 73.2 13 -6.7 19.9
15:00 1020 30.12 850 25.1 22.8 73 14 -6.4 20.5
15:05 1020 30.12 849 25.07 23 73.4 13 -6.6 20.2
15:10 1020 30.12 849 25.07 22.8 73 14 -6.2 20.9
15:15 1020 30.12 849 25.07 23 73.4 13 -6.8 19.7
15:20 1020 30.12 849 25.07 23 73.4 13 -6.6 20.1
15:25 1020 30.12 849 25.07 22.9 73.3 14 -5.7 21.7
15:30 1020 30.12 849 25.07 23.5 74.3 13 -6 21.2
15:35 1020 30.12 849 25.07 24.1 75.3 13 -5.8 21.5
15:40 1020 30.12 849 25.07 23.8 74.8 14 -5.2 22.7
15:45 1020 30.12 849 25.07 24.2 75.6 13 -5.9 21.4
15:50 1020 30.12 849 25.07 24.2 75.5 14 -5.1 22.8
15:55 1020 30.12 849 25.07 24 75.2 14 -5 23
16:00 1020 30.12 849 25.07 23.7 74.6 14 -5.1 22.8
16:05 1020 30.12 849 25.07 24.2 75.6 14 -4.6 23.7
16:10 1020 30.12 849 25.07 24.4 75.9 13 -5.4 22.2
16:15 1020 30.12 849 25.07 23.5 74.2 14 -5.2 22.7
16:20 1020 30.12 849 25.07 24.2 75.6 14 -4.9 23.1
16:25 1020 30.12 849 25.07 24.3 75.7 14 -5.2 22.7
16:30 1020 30.12 849 25.07 23.8 74.8 15 -4.3 24.3
16:35 1020 30.12 849 25.07 23.5 74.4 14 -4.9 23.2
16:40 1020 30.12 849 25.07 23.7 74.7 14 -4.8 23.4
16:45 1020 30.12 849 25.07 23.3 73.9 15 -4.5 23.8
16:50 1020 30.12 849 25.07 23 73.3 14 -5.4 22.4
16:55 1020 30.12 849 25.07 22.8 73 15 -4.9 23.2
17:00 1020 30.12 849 25.07 23 73.4 15 -4.7 23.6
17:05 1020 30.12 849 25.07 22.6 72.6 15 -4.9 23.1
17:10 1020 30.12 849 25.07 22.6 72.7 15 -5.6 22
17:15 1020 30.12 849 25.07 22.7 72.9 15 -5.2 22.6
17:20 1020 30.12 849 25.07 22.8 73.1 15 -5.2 22.7
17:25 1020 30.12 849 25.07 22.8 73 15 -5.1 22.8
17:30 1020 30.12 849 25.07 22.7 72.9 14 -5.5 22
17:35 1020 30.12 849 25.07 22.7 72.8 15 -5.5 22.1
17:40 1020 30.12 849 25.07 23.2 73.8 14 -5.4 22.2
17:45 1020 30.12 849 25.07 23.5 74.3 14 -5.5 22.2
17:50 1020 30.12 849 25.07 23.6 74.5 14 -5.1 22.9
17:55 1020 30.12 849 25.07 23.5 74.2 15 -4.8 23.3
18:00 1020 30.12 849 25.07 23.3 73.9 15 -4.9 23.2
18:05 1020 30.12 849 25.07 23.4 74.1 16 -3.4 25.9
18:10 1020 30.12 849 25.07 23.5 74.3 14 -5.5 22.1
18:15 1020 30.12 849 25.07 23.3 73.9 14 -5.3 22.5
18:20 1020 30.12 849 25.07 23.3 74 15 -4.7 23.5
18:25 1020 30.12 849 25.07 23.4 74.2 14 -4.9 23.1
18:30 1020 30.12 849 25.07 23.5 74.2 15 -4.4 24.1
18:35 1020 30.12 849 25.07 23.1 73.6 15 -4.5 23.9
18:40 1020 30.12 849 25.07 22.7 72.8 16 -4.5 23.9
18:45 1020 30.12 849 25.07 22.4 72.2 17 -3.3 26
18:50 1020 30.12 849 25.07 21.9 71.5 17 -4.2 24.5
18:55 1020 30.12 849 25.07 21.3 70.4 19 -3.4 25.9
19:00 1020 30.12 849 25.07 20.8 69.4 19 -3.9 25
19:05 1020 30.12 849 25.07 20.3 68.6 23 -1.5 29.3
19:10 1020 30.12 849 25.07 19.5 67 27 0.2 32.3
19:15 1020 30.12 849 25.07 18.7 65.7 28 -0 31.9
19:20 1020 30.12 849 25.07 18.1 64.6 31 0.8 33.4
19:25 1020 30.12 850 25.1 17.3 63.1 31 0.2 32.3
19:30 1020 30.12 850 25.1 16.8 62.3 31 -0.5 31.1
19:35 1020 30.12 850 25.1 16.6 61.9 30 -1 30.3
19:40 1020 30.12 850 25.1 16.6 61.9 29 -1.4 29.4
19:45 1020 30.12 850 25.1 16.6 61.9 29 -1.2 29.8
19:50 1021 30.15 850 25.1 16.4 61.5 29 -1.4 29.5
19:55 1021 30.15 850 25.1 16.1 61 31 -1 30.2
20:00 1021 30.15 850 25.1 15.8 60.4 32 -0.7 30.7
20:05 1021 30.15 850 25.1 15.6 60.2 31 -1.1 30
20:10 1021 30.15 850 25.1 15.6 60.2 32 -1 30.1
20:15 1021 30.15 850 25.1 15.5 60 32 -1 30.3
20:20 1021 30.15 850 25.1 15.1 59.3 33 -1 30.3
20:25 1021 30.15 850 25.1 14.7 58.5 38 0.5 32.8
20:30 1021 30.15 850 25.1 14.4 57.9 34 -1.2 29.8
20:35 1021 30.15 850 25.1 14.1 57.5 34 -1.4 29.4
20:40 1021 30.15 850 25.1 14.4 58 33 -1.4 29.4
20:45 1021 30.15 850 25.1 14.5 58 33 -1.4 29.4
20:50 1021 30.15 850 25.1 14.4 57.8 34 -1.3 29.7
20:55 1021 30.15 850 25.1 14 57.3 32 -2.2 28
21:00 1021 30.15 851 25.13 14.1 57.4 32 -2.4 27.6
21:05 1021 30.15 851 25.13 14.3 57.8 30 -2.9 26.8
21:10 1021 30.15 851 25.13 14.7 58.5 29 -3 26.5
21:15 1022 30.18 851 25.13 14.9 58.7 29 -3 26.6
21:20 1022 30.18 851 25.13 15 58.9 30 -2.3 27.8
21:25 1022 30.18 851 25.13 14.9 58.8 28 -3.4 25.9
21:30 1022 30.18 851 25.13 15 59.1 27 -3.8 25.2
21:35 1022 30.18 851 25.13 15.4 59.6 28 -3.1 26.5
21:40 1022 30.18 851 25.13 15.2 59.3 27 -3.8 25.1
21:45 1022 30.18 851 25.13 15.4 59.7 27 -3.6 25.5
21:50 1022 30.18 851 25.13 15.2 59.4 27 -3.6 25.6
21:55 1022 30.18 851 25.13 15.2 59.4 27 -3.7 25.3
22:00 1022 30.18 851 25.13 15.2 59.4 27 -3.7 25.3
22:05 1022 30.18 851 25.13 15.7 60.2 26 -3.6 25.5
22:10 1022 30.18 851 25.13 15.5 59.8 30 -2 28.4
22:15 1022 30.18 852 25.16 14 57.3 32 -2.2 28.1
22:20 1022 30.18 852 25.16 13.5 56.2 32 -2.7 27.1
22:25 1022 30.18 852 25.16 13.5 56.2 33 -2.4 27.7
22:30 1023 30.21 852 25.16 13.4 56.2 31 -3.1 26.4
22:35 1023 30.21 852 25.16 13.7 56.6 31 -3 26.6
22:40 1023 30.21 852 25.16 14 57.3 30 -3.4 25.9
22:45 1023 30.21 852 25.16 14.5 58.1 32 -1.9 28.7
22:50 1023 30.21 852 25.16 13.4 56.2 36 -1.4 29.5
22:55 1023 30.21 852 25.16 12.1 53.8 37 -1.9 28.5
23:00 1023 30.21 852 25.16 12.1 53.8 36 -2.3 27.9
23:05 1023 30.21 852 25.16 12.1 53.8 36 -2.6 27.3
23:10 1023 30.21 852 25.16 12.1 53.7 37 -2.1 28.2
23:15 1023 30.21 852 25.16 11.9 53.3 38 -2 28.5
23:20 1023 30.21 852 25.16 11.8 53.3 37 -2.3 27.9
23:25 1023 30.21 852 25.16 11.7 53.1 38 -2 28.4
23:30 1023 30.21 852 25.16 11.4 52.6 40 -1.7 29
23:35 1023 30.21 852 25.16 11.3 52.3 39 -2.3 27.9
23:40 1023 30.21 852 25.16 11.4 52.6 40 -1.6 29.1
23:45 1023 30.21 852 25.16 11.5 52.6 40 -1.7 28.9
23:50 1023 30.21 852 25.16 11.7 53 39 -1.7 29
23:55 1023 30.21 852 25.16 11.5 52.6 41 -1.3 29.6
24:00 1023 30.21 852 25.16 11.2 52.2 41 -1.4 29.4